Time;durP1;ratioP1;P1;durP2;ratioP2;P2;SDS_P1;SDS_P2;PMS_P1;PMS_P2;Temp;Humidity;BMP_temperature;BMP_pressure;BME280_temperature;BME280_humidity;BME280_pressure;Samples;Min_cycle;Max_cycle;Signal;HPM_P1;HPM_P2
2023/04/10 00:00:09;;;;;;;1.75;0.32;;;12.30;99.90;;;;;;5075582;28;20035;-69
2023/04/10 00:02:36;;;;;;;1.90;1.17;;;12.30;99.90;;;;;;5075536;28;20036;-69
2023/04/10 00:05:02;;;;;;;3.35;1.08;;;12.40;99.90;;;;;;5074311;28;20376;-69
2023/04/10 00:07:28;;;;;;;1.25;1.17;;;12.40;99.90;;;;;;5074866;28;20024;-69
2023/04/10 00:09:54;;;;;;;4.13;2.72;;;12.20;99.90;;;;;;5073189;28;20071;-69
2023/04/10 00:12:20;;;;;;;3.55;2.25;;;12.10;99.90;;;;;;5075237;28;20020;-69
2023/04/10 00:14:45;;;;;;;1.30;1.17;;;11.90;99.90;;;;;;5073803;28;20032;-68
2023/04/10 00:17:11;;;;;;;6.72;2.45;;;11.90;99.90;;;;;;5075545;28;20107;-69
2023/04/10 00:19:37;;;;;;;2.53;1.95;;;11.90;99.90;;;;;;5075341;28;20103;-69
2023/04/10 00:22:03;;;;;;;0.40;0.40;;;11.80;99.90;;;;;;5075007;28;20044;-69
2023/04/10 00:24:29;;;;;;;0.30;0.30;;;11.80;99.90;;;;;;5075000;28;20384;-69
2023/04/10 00:26:56;;;;;;;0.55;0.35;;;11.90;99.90;;;;;;5075068;28;20116;-68
2023/04/10 00:29:22;;;;;;;1.00;1.00;;;11.70;99.90;;;;;;5075151;28;20052;-69
2023/04/10 00:31:48;;;;;;;2.92;0.88;;;11.70;99.90;;;;;;5074939;28;20025;-71
2023/04/10 00:34:14;;;;;;;2.53;2.28;;;11.80;99.90;;;;;;5073457;28;20029;-70
2023/04/10 00:36:41;;;;;;;0.10;0.10;;;11.70;99.90;;;;;;5073722;28;20104;-70
2023/04/10 00:39:08;;;;;;;3.60;1.38;;;11.60;99.90;;;;;;5074609;28;20060;-71
2023/04/10 00:41:34;;;;;;;0.10;0.10;;;11.60;99.90;;;;;;5073328;28;20051;-69
2023/04/10 00:44:00;;;;;;;0.30;0.30;;;11.50;99.90;;;;;;5073204;28;20029;-69
2023/04/10 00:46:27;;;;;;;0.20;0.20;;;11.50;99.90;;;;;;5073600;28;20060;-70
2023/04/10 00:48:55;;;;;;;3.22;2.28;;;11.50;99.90;;;;;;5074481;28;20484;-69
2023/04/10 00:51:21;;;;;;;0.90;0.45;;;11.50;99.90;;;;;;5073489;28;20070;-71
2023/04/10 00:53:50;;;;;;;1.90;1.35;;;11.40;99.90;;;;;;5073076;28;20468;-69
2023/04/10 00:56:17;;;;;;;1.27;1.17;;;11.40;99.90;;;;;;5074393;28;20115;-70
2023/04/10 00:58:43;;;;;;;0.73;0.73;;;11.30;99.90;;;;;;5074049;28;20529;-70
2023/04/10 01:01:10;;;;;;;0.93;0.85;;;11.30;99.90;;;;;;5074485;28;20040;-69
2023/04/10 01:03:38;;;;;;;0.30;0.30;;;11.30;99.90;;;;;;5074106;28;20494;-69
2023/04/10 01:06:30;;;;;;;0.98;0.88;;;11.30;99.90;;;;;;5073228;28;20020;-69
2023/04/10 01:09:29;;;;;;;0.50;0.50;;;11.10;99.90;;;;;;5073143;28;20119;-70
2023/04/10 01:12:32;;;;;;;1.23;1.10;;;11.10;99.90;;;;;;5074786;28;20107;-70
2023/04/10 01:15:18;;;;;;;2.10;1.95;;;11.10;99.90;;;;;;5057794;28;20127;-69
2023/04/10 01:17:47;;;;;;;7.85;2.35;;;11.40;99.90;;;;;;5073960;28;20053;-69
2023/04/10 01:20:24;;;;;;;8.50;0.98;;;11.30;99.90;;;;;;5072547;28;20081;-69
2023/04/10 01:23:05;;;;;;;0.45;0.45;;;11.30;99.90;;;;;;5073536;28;20017;-69
2023/04/10 01:25:40;;;;;;;0.50;0.50;;;11.30;99.90;;;;;;5072780;28;20064;-69
2023/04/10 01:28:17;;;;;;;0.35;0.35;;;11.50;99.90;;;;;;5055698;28;20045;-68
2023/04/10 01:30:46;;;;;;;7.90;2.17;;;11.80;99.90;;;;;;5066563;28;20113;-69
2023/04/10 01:33:17;;;;;;;2.40;1.63;;;11.60;99.90;;;;;;5072323;28;20020;-69
2023/04/10 01:35:48;;;;;;;2.53;1.33;;;11.50;99.90;;;;;;5073938;28;20048;-68
2023/04/10 01:38:17;;;;;;;1.90;0.82;;;11.50;99.90;;;;;;5071995;28;20073;-68
2023/04/10 01:40:49;;;;;;;4.07;2.72;;;11.70;99.90;;;;;;5071353;28;20063;-69
2023/04/10 01:43:21;;;;;;;1.83;1.73;;;11.70;99.90;;;;;;5091987;28;20048;-69
2023/04/10 01:45:51;;;;;;;2.42;1.80;;;11.70;99.90;;;;;;5092122;28;20027;-69
2023/04/10 01:48:18;;;;;;;0.82;0.82;;;11.60;99.90;;;;;;5093575;28;20039;-69
2023/04/10 01:50:45;;;;;;;3.03;1.95;;;11.50;99.90;;;;;;5092556;28;20032;-68
2023/04/10 01:53:12;;;;;;;1.08;1.08;;;11.50;99.90;;;;;;5092385;28;20024;-68
2023/04/10 01:55:38;;;;;;;2.75;1.98;;;11.60;99.90;;;;;;5093403;28;20058;-69
2023/04/10 01:58:06;;;;;;;0.75;0.75;;;11.60;99.90;;;;;;5075217;28;20024;-69
2023/04/10 02:00:40;;;;;;;8.40;1.90;;;11.50;99.90;;;;;;5092136;28;20127;-68
2023/04/10 02:03:07;;;;;;;4.00;2.35;;;11.40;99.90;;;;;;5092074;28;20127;-69
2023/04/10 02:05:53;;;;;;;2.15;1.27;;;11.40;99.90;;;;;;5093524;28;20032;-68
2023/04/10 02:08:42;;;;;;;5.35;2.72;;;11.40;99.90;;;;;;5091723;28;20032;-68
2023/04/10 02:11:39;;;;;;;1.65;1.42;;;11.40;99.90;;;;;;5092913;28;20035;-69
2023/04/10 02:14:09;;;;;;;2.22;1.20;;;11.40;99.90;;;;;;5086232;28;20028;-69
2023/04/10 02:16:37;;;;;;;4.22;2.47;;;11.40;99.90;;;;;;5093101;28;20469;-69
2023/04/10 02:19:04;;;;;;;2.40;1.58;;;11.50;99.90;;;;;;5092068;28;20013;-69
2023/04/10 02:21:32;;;;;;;6.95;3.40;;;11.40;99.90;;;;;;5091746;28;20138;-69
2023/04/10 02:23:59;;;;;;;2.65;1.67;;;11.20;99.90;;;;;;5092942;28;20073;-70
2023/04/10 02:26:25;;;;;;;0.63;0.63;;;11.20;99.90;;;;;;5091611;28;20051;-69
2023/04/10 02:28:51;;;;;;;1.63;1.20;;;11.20;99.90;;;;;;5091623;28;20384;-69
2023/04/10 02:31:16;;;;;;;2.08;1.05;;;11.20;99.90;;;;;;5092390;28;20465;-69
2023/04/10 02:33:42;;;;;;;0.80;0.73;;;11.10;99.90;;;;;;5092864;28;20036;-70
2023/04/10 02:36:08;;;;;;;2.05;1.85;;;11.20;99.90;;;;;;5092939;28;20031;-69
2023/04/10 02:38:34;;;;;;;4.53;1.90;;;11.20;99.90;;;;;;5092812;28;20039;-69
2023/04/10 02:41:00;;;;;;;0.25;0.25;;;11.30;99.90;;;;;;5074357;28;20499;-69
2023/04/10 02:43:26;;;;;;;1.38;0.98;;;11.30;99.90;;;;;;5091794;28;20020;-71
2023/04/10 02:45:52;;;;;;;0.20;0.20;;;11.10;99.90;;;;;;5091340;28;20024;-69
2023/04/10 02:48:24;;;;;;;0.60;0.60;;;11.10;99.90;;;;;;5091345;28;20047;-69
2023/04/10 02:50:56;;;;;;;1.17;0.98;;;11.00;99.90;;;;;;5075155;28;20032;-70
2023/04/10 02:53:24;;;;;;;5.35;1.10;;;11.20;99.90;;;;;;5091529;28;20499;-69
2023/04/10 02:55:53;;;;;;;0.98;0.90;;;11.20;99.90;;;;;;5090856;28;20078;-68
2023/04/10 02:58:20;;;;;;;6.63;0.93;;;11.10;99.90;;;;;;5074660;28;20085;-69
2023/04/10 03:00:48;;;;;;;0.30;0.30;;;11.00;99.90;;;;;;5091363;28;20048;-68
2023/04/10 03:03:18;;;;;;;0.40;0.40;;;11.10;99.90;;;;;;5075116;28;20521;-69
2023/04/10 03:05:49;;;;;;;0.13;0.13;;;11.10;99.90;;;;;;5078110;28;20593;-71
2023/04/10 03:08:17;;;;;;;0.10;0.10;;;11.20;99.90;;;;;;5090839;28;20020;-71
2023/04/10 03:10:44;;;;;;;0.50;0.50;;;11.10;99.90;;;;;;5091965;28;20488;-69
2023/04/10 03:13:10;;;;;;;0.22;0.22;;;11.10;99.90;;;;;;5091449;28;20103;-69
2023/04/10 03:15:37;;;;;;;0.75;0.75;;;11.10;99.90;;;;;;5091310;28;20028;-69
2023/04/10 03:18:06;;;;;;;0.47;0.47;;;11.20;99.90;;;;;;5074239;28;20024;-69
2023/04/10 03:20:32;;;;;;;0.80;0.40;;;11.20;99.90;;;;;;5091094;28;20494;-69
2023/04/10 03:23:02;;;;;;;0.30;0.30;;;11.20;99.90;;;;;;5090670;28;20332;-70
2023/04/10 03:25:30;;;;;;;0.43;0.43;;;11.10;99.90;;;;;;5090905;28;20028;-69
2023/04/10 03:27:56;;;;;;;0.73;0.65;;;11.00;99.90;;;;;;5091144;28;20059;-68
2023/04/10 03:30:22;;;;;;;1.35;0.75;;;10.90;99.90;;;;;;5091134;28;20052;-69
2023/04/10 03:32:48;;;;;;;0.70;0.70;;;10.70;99.90;;;;;;5090937;28;20028;-70
2023/04/10 03:35:15;;;;;;;0.60;0.60;;;10.50;99.90;;;;;;5090946;28;20119;-70
2023/04/10 03:37:41;;;;;;;0.25;0.25;;;10.50;99.90;;;;;;5090532;28;20107;-69
2023/04/10 03:40:08;;;;;;;0.65;0.65;;;10.50;99.90;;;;;;5092249;28;20042;-70
2023/04/10 03:42:35;;;;;;;1.23;1.13;;;10.60;99.90;;;;;;5091730;28;20039;-70
2023/04/10 03:45:05;;;;;;;0.40;0.40;;;10.60;99.90;;;;;;5080893;28;20052;-69
2023/04/10 03:47:31;;;;;;;0.10;0.10;;;10.60;99.90;;;;;;5080914;28;20032;-69
2023/04/10 03:49:59;;;;;;;0.28;0.28;;;10.50;99.90;;;;;;5094612;28;20024;-69
2023/04/10 03:52:26;;;;;;;0.17;0.17;;;10.60;99.90;;;;;;5094103;28;20058;-69
2023/04/10 03:54:54;;;;;;;0.73;0.73;;;10.50;99.90;;;;;;5094703;28;20110;-69
2023/04/10 03:57:26;;;;;;;0.88;0.88;;;10.40;99.90;;;;;;5095969;28;20028;-71
2023/04/10 03:59:57;;;;;;;0.10;0.10;;;10.40;99.90;;;;;;5094655;28;20047;-71
2023/04/10 04:02:24;;;;;;;0.10;0.10;;;10.40;99.90;;;;;;5094644;28;20385;-70
2023/04/10 04:04:53;;;;;;;0.10;0.10;;;10.50;99.90;;;;;;5094375;28;20016;-71
2023/04/10 04:07:38;;;;;;;0.20;0.20;;;10.70;99.90;;;;;;5095192;28;20477;-72
2023/04/10 04:10:24;;;;;;;0.10;0.10;;;10.80;99.90;;;;;;5094274;28;20032;-72
2023/04/10 04:13:08;;;;;;;0.45;0.45;;;10.80;99.90;;;;;;5095390;28;20077;-72
2023/04/10 04:15:59;;;;;;;0.20;0.20;;;10.80;99.90;;;;;;5088356;28;20044;-71
2023/04/10 04:18:47;;;;;;;0.10;0.10;;;10.90;99.90;;;;;;5094300;28;20119;-71
2023/04/10 04:21:19;;;;;;;0.32;0.25;;;10.90;99.90;;;;;;5093678;28;20097;-71
2023/04/10 04:24:03;;;;;;;0.20;0.20;;;10.90;99.90;;;;;;5093875;28;20028;-71
2023/04/10 04:26:52;;;;;;;1.98;0.90;;;11.00;99.90;;;;;;5093881;28;20066;-71
2023/04/10 04:29:36;;;;;;;0.20;0.20;;;11.00;99.90;;;;;;5094346;28;20110;-71
2023/04/10 04:32:16;;;;;;;0.52;0.40;;;11.10;99.90;;;;;;5093824;28;20027;-71
2023/04/10 04:35:00;;;;;;;2.08;0.47;;;10.90;99.90;;;;;;5093628;28;20538;-71
2023/04/10 04:37:47;;;;;;;2.05;0.85;;;10.90;99.90;;;;;;5093195;28;20043;-71
2023/04/10 04:40:35;;;;;;;7.47;0.63;;;10.70;99.90;;;;;;5094787;28;20060;-71
2023/04/10 04:43:21;;;;;;;1.42;1.33;;;10.60;99.90;;;;;;5082873;28;20047;-70
2023/04/10 04:46:17;;;;;;;1.35;1.25;;;10.50;99.90;;;;;;5094091;28;20081;-70
2023/04/10 04:48:55;;;;;;;0.47;0.47;;;10.40;99.90;;;;;;5093278;28;20027;-70
2023/04/10 04:51:43;;;;;;;0.50;0.50;;;10.40;99.90;;;;;;5093455;28;20419;-71
2023/04/10 04:54:25;;;;;;;0.80;0.80;;;10.40;99.90;;;;;;5092849;28;20028;-71
2023/04/10 04:57:09;;;;;;;0.65;0.38;;;10.30;99.90;;;;;;5094225;28;20120;-70
2023/04/10 04:59:54;;;;;;;4.60;4.22;;;10.20;99.90;;;;;;5094878;28;20101;-71
2023/04/10 05:02:40;;;;;;;0.65;0.32;;;10.30;99.90;;;;;;5094228;28;20051;-70
2023/04/10 05:05:32;;;;;;;;;;;10.30;99.90;;;;;;5078624;28;20484;-71
2023/04/10 05:08:10;;;;;;;0.98;0.82;;;10.20;99.90;;;;;;5092576;28;20022;-71
2023/04/10 05:10:54;;;;;;;0.10;0.10;;;10.30;99.90;;;;;;5093206;28;20082;-71
2023/04/10 05:13:34;;;;;;;0.30;0.30;;;10.40;99.90;;;;;;5092915;28;20020;-70
2023/04/10 05:16:32;;;;;;;0.50;0.50;;;10.30;99.90;;;;;;5081913;28;20051;-71
2023/04/10 05:19:21;;;;;;;0.65;0.65;;;10.40;99.90;;;;;;5092494;28;20553;-71
2023/04/10 05:21:54;;;;;;;0.17;0.17;;;10.50;99.90;;;;;;5092736;28;20438;-71
2023/04/10 05:24:23;;;;;;;0.30;0.30;;;10.60;99.90;;;;;;5092951;28;20067;-69
2023/04/10 05:27:25;;;;;;;6.82;1.63;;;10.60;99.90;;;;;;5089374;28;20107;-72
2023/04/10 05:30:15;;;;;;;0.28;0.28;;;10.60;99.90;;;;;;5067275;28;20369;-71
2023/04/10 05:33:01;;;;;;;0.10;0.10;;;10.50;99.90;;;;;;5093752;28;20032;-71
2023/04/10 05:35:36;;;;;;;0.55;0.55;;;10.60;99.90;;;;;;5093761;28;20118;-72
2023/04/10 05:38:17;;;;;;;0.10;0.10;;;10.60;99.90;;;;;;5092436;28;20073;-71
2023/04/10 05:41:05;;;;;;;0.65;0.38;;;10.80;99.90;;;;;;5090614;28;20302;-69
2023/04/10 05:43:57;;;;;;;3.80;1.30;;;10.70;99.90;;;;;;5071137;28;20037;-70
2023/04/10 05:46:51;;;;;;;2.10;0.68;;;10.80;99.90;;;;;;5069341;28;20496;-70
2023/04/10 05:49:25;;;;;;;0.32;0.32;;;10.60;99.90;;;;;;5075091;28;20020;-71
2023/04/10 05:51:52;;;;;;;0.40;0.40;;;10.60;99.90;;;;;;5093445;28;20036;-70
2023/04/10 05:54:30;;;;;;;0.90;0.90;;;10.60;99.90;;;;;;5092515;28;20089;-70
2023/04/10 05:57:02;;;;;;;3.50;3.20;;;10.50;99.90;;;;;;5092996;28;20031;-71
2023/04/10 05:59:54;;;;;;;0.13;0.13;;;10.60;99.90;;;;;;5077454;28;20549;-71
2023/04/10 06:02:23;;;;;;;0.43;0.43;;;10.50;99.90;;;;;;5092649;28;20102;-71
2023/04/10 06:04:50;;;;;;;0.47;0.38;;;10.50;99.90;;;;;;5091282;28;20012;-71
2023/04/10 06:07:15;;;;;;;2.30;2.15;;;10.60;99.90;;;;;;5067017;28;20029;-70
2023/04/10 06:09:41;;;;;;;0.40;0.40;;;10.60;99.90;;;;;;5086471;28;20059;-72
2023/04/10 06:12:08;;;;;;;1.40;0.82;;;10.60;99.90;;;;;;5090519;28;20065;-69
2023/04/10 06:14:36;;;;;;;0.10;0.10;;;10.60;99.90;;;;;;5091008;28;20025;-70
2023/04/10 06:17:02;;;;;;;1.02;0.90;;;10.50;99.90;;;;;;5090944;28;20369;-70
2023/04/10 06:19:27;;;;;;;0.20;0.20;;;10.60;99.90;;;;;;5091105;28;20020;-71
2023/04/10 06:21:53;;;;;;;0.20;0.20;;;10.50;99.90;;;;;;5090696;28;20119;-71
2023/04/10 06:24:19;;;;;;;0.45;0.45;;;10.50;99.90;;;;;;5090982;28;20028;-70
2023/04/10 06:26:46;;;;;;;0.60;0.60;;;10.50;99.90;;;;;;5086775;28;20027;-69
2023/04/10 06:29:12;;;;;;;0.15;0.15;;;10.50;99.90;;;;;;5087393;28;20047;-70
2023/04/10 06:31:38;;;;;;;0.50;0.50;;;10.60;99.90;;;;;;5082964;28;20032;-71
2023/04/10 06:34:04;;;;;;;5.03;2.00;;;10.60;99.90;;;;;;5076338;28;20032;-70
2023/04/10 06:36:31;;;;;;;2.30;1.90;;;10.60;99.90;;;;;;5074512;28;20051;-71
2023/04/10 06:39:03;;;;;;;;;;;10.70;99.90;;;;;;5078131;28;20579;-70
2023/04/10 06:41:29;;;;;;;1.77;0.90;;;10.70;99.90;;;;;;5081828;28;20003;-71
2023/04/10 06:44:04;;;;;;;1.00;0.95;;;10.80;99.90;;;;;;5072510;28;20024;-71
2023/04/10 06:46:30;;;;;;;0.95;0.93;;;10.90;99.90;;;;;;5076776;28;20042;-68
2023/04/10 06:48:55;;;;;;;8.90;1.70;;;10.90;99.90;;;;;;5072505;28;20017;-69
2023/04/10 06:51:21;;;;;;;2.85;1.98;;;10.90;99.90;;;;;;5091869;28;20032;-68
2023/04/10 06:53:47;;;;;;;2.08;1.38;;;10.80;99.90;;;;;;5091807;28;20024;-68
2023/04/10 06:56:13;;;;;;;1.48;1.23;;;11.00;99.90;;;;;;5090591;28;20060;-69
2023/04/10 06:58:40;;;;;;;0.68;0.68;;;11.00;99.90;;;;;;5091860;28;20530;-68
2023/04/10 07:01:06;;;;;;;2.35;0.80;;;11.00;99.90;;;;;;5091221;28;20025;-69
2023/04/10 07:03:32;;;;;;;3.78;1.75;;;11.00;99.90;;;;;;5091815;28;20442;-69
2023/04/10 07:05:58;;;;;;;2.28;1.23;;;11.10;99.90;;;;;;5084562;28;20051;-69
2023/04/10 07:08:24;;;;;;;1.58;0.88;;;11.10;99.90;;;;;;5080403;28;20040;-68
2023/04/10 07:10:50;;;;;;;0.20;0.15;;;11.20;99.90;;;;;;5072703;28;20490;-68
2023/04/10 07:13:16;;;;;;;1.63;1.35;;;11.30;99.90;;;;;;5073054;28;20024;-69
2023/04/10 07:15:42;;;;;;;0.40;0.40;;;11.40;99.90;;;;;;5068050;28;20175;-69
2023/04/10 07:18:08;;;;;;;2.83;2.50;;;11.50;99.90;;;;;;5073190;28;20013;-69
2023/04/10 07:20:33;;;;;;;3.33;1.33;;;11.40;99.90;;;;;;5072088;28;20101;-69
2023/04/10 07:22:59;;;;;;;1.27;1.17;;;11.40;99.90;;;;;;5081284;28;20020;-68
2023/04/10 07:25:25;;;;;;;1.85;1.48;;;11.40;99.90;;;;;;5075530;28;20031;-69
2023/04/10 07:27:51;;;;;;;1.73;1.30;;;11.30;99.90;;;;;;5064182;28;20488;-68
2023/04/10 07:30:17;;;;;;;0.90;0.90;;;11.20;99.90;;;;;;5081803;28;20048;-69
2023/04/10 07:32:43;;;;;;;2.85;1.55;;;11.30;99.90;;;;;;5085135;28;20024;-68
2023/04/10 07:35:09;;;;;;;4.20;2.33;;;11.50;99.90;;;;;;5077256;28;20065;-68
2023/04/10 07:37:35;;;;;;;1.35;1.25;;;11.40;99.90;;;;;;5061917;28;20025;-70
2023/04/10 07:40:01;;;;;;;2.90;2.10;;;11.50;99.90;;;;;;5072053;28;20565;-71
2023/04/10 07:42:27;;;;;;;2.90;2.08;;;11.50;99.90;;;;;;5080711;28;20393;-71
2023/04/10 07:44:52;;;;;;;1.88;1.52;;;11.50;99.90;;;;;;5086770;28;20119;-70
2023/04/10 07:47:18;;;;;;;0.65;0.65;;;11.50;99.90;;;;;;5069707;28;20028;-70
2023/04/10 07:49:44;;;;;;;2.30;1.85;;;11.70;99.90;;;;;;5081131;28;20024;-71
2023/04/10 07:52:10;;;;;;;2.47;1.55;;;11.80;99.90;;;;;;5092357;28;20456;-71
2023/04/10 07:54:36;;;;;;;2.53;1.73;;;11.80;99.90;;;;;;5095004;28;20036;-71
2023/04/10 07:57:01;;;;;;;0.82;0.82;;;11.90;99.90;;;;;;5085116;28;20056;-69
2023/04/10 07:59:27;;;;;;;3.08;1.77;;;11.90;99.90;;;;;;5083952;28;20029;-72
2023/04/10 08:01:54;;;;;;;2.38;2.15;;;12.20;99.90;;;;;;5078500;28;20047;-71
2023/04/10 08:04:20;;;;;;;3.72;1.45;;;12.20;99.90;;;;;;5071222;28;20445;-69
2023/04/10 08:06:45;;;;;;;1.55;1.45;;;12.30;99.90;;;;;;5068421;28;20024;-71
2023/04/10 08:09:11;;;;;;;3.38;2.03;;;12.30;99.90;;;;;;5080733;28;20103;-70
2023/04/10 08:11:37;;;;;;;2.40;1.50;;;12.20;99.90;;;;;;5074887;28;20064;-72
2023/04/10 08:14:04;;;;;;;0.80;0.80;;;12.20;99.90;;;;;;5077404;28;20031;-71
2023/04/10 08:16:31;;;;;;;2.03;1.17;;;12.30;99.90;;;;;;5076278;28;20396;-71
2023/04/10 08:18:58;;;;;;;2.72;2.40;;;12.50;99.90;;;;;;5085567;28;20115;-70
2023/04/10 08:21:26;;;;;;;3.55;2.08;;;12.50;99.90;;;;;;5072317;28;20028;-70
2023/04/10 08:23:53;;;;;;;1.00;0.98;;;12.40;99.90;;;;;;5074356;28;20476;-71
2023/04/10 08:26:20;;;;;;;1.70;0.98;;;12.50;99.90;;;;;;5076737;28;20028;-71
2023/04/10 08:28:51;;;;;;;1.75;1.55;;;12.50;99.90;;;;;;5075823;28;20095;-70
2023/04/10 08:31:21;;;;;;;1.10;1.05;;;12.50;99.90;;;;;;5083097;28;20373;-69
2023/04/10 08:33:47;;;;;;;1.05;1.00;;;12.60;99.90;;;;;;5077021;28;20036;-70
2023/04/10 08:36:16;;;;;;;1.45;1.05;;;12.70;99.90;;;;;;5074694;28;20036;-70
2023/04/10 08:38:45;;;;;;;2.08;1.50;;;12.70;99.90;;;;;;5078157;28;20024;-69
2023/04/10 08:41:15;;;;;;;0.90;0.90;;;12.70;99.90;;;;;;5064412;28;20089;-70
2023/04/10 08:43:42;;;;;;;2.80;1.95;;;12.80;99.90;;;;;;5079051;28;20020;-70
2023/04/10 08:46:08;;;;;;;3.58;2.17;;;12.90;99.90;;;;;;5067545;28;20024;-72
2023/04/10 08:48:38;;;;;;;1.35;1.10;;;12.90;99.90;;;;;;5063042;28;20111;-70
2023/04/10 08:51:06;;;;;;;6.75;2.38;;;13.00;99.90;;;;;;5089065;28;20433;-72
2023/04/10 08:53:38;;;;;;;6.50;0.98;;;13.00;99.90;;;;;;5090427;28;20575;-71
2023/04/10 08:56:05;;;;;;;2.08;1.48;;;13.10;99.90;;;;;;5082260;28;20487;-71
2023/04/10 08:58:31;;;;;;;0.63;0.63;;;13.30;99.90;;;;;;5081447;28;20020;-70
2023/04/10 09:00:58;;;;;;;3.85;1.48;;;13.20;99.90;;;;;;5078447;28;20032;-71
2023/04/10 09:03:26;;;;;;;4.43;1.45;;;13.20;99.90;;;;;;5060085;28;20504;-71
2023/04/10 09:05:52;;;;;;;1.15;0.65;;;13.50;99.90;;;;;;5068552;28;20016;-70
2023/04/10 09:08:18;;;;;;;1.92;1.33;;;13.70;99.90;;;;;;5076666;28;20407;-70
2023/04/10 09:10:43;;;;;;;0.73;0.55;;;13.80;99.90;;;;;;5084525;28;20032;-71
2023/04/10 09:13:09;;;;;;;0.85;0.52;;;13.60;99.90;;;;;;5075134;28;20086;-70
2023/04/10 09:15:55;;;;;;;0.30;0.30;;;13.70;99.90;;;;;;5071613;28;20060;-70
2023/04/10 09:18:20;;;;;;;2.92;1.70;;;13.80;99.90;;;;;;5079651;28;20421;-71
2023/04/10 09:20:50;;;;;;;3.15;2.03;;;13.90;99.90;;;;;;5079440;28;20056;-70
2023/04/10 09:23:23;;;;;;;1.27;1.15;;;14.10;99.90;;;;;;5075559;28;20038;-70
2023/04/10 09:25:48;;;;;;;3.50;2.10;;;14.00;99.90;;;;;;5066462;28;20637;-71
2023/04/10 09:28:14;;;;;;;2.65;1.63;;;14.00;99.90;;;;;;5073748;28;20064;-71
2023/04/10 09:30:41;;;;;;;7.10;1.75;;;14.40;99.90;;;;;;5075708;28;20067;-71
2023/04/10 09:33:26;;;;;;;3.30;1.48;;;14.40;99.90;;;;;;5080763;28;20428;-71
2023/04/10 09:35:53;;;;;;;2.78;1.27;;;14.30;99.90;;;;;;5062264;28;20106;-69
2023/04/10 09:38:20;;;;;;;0.52;0.52;;;14.30;99.90;;;;;;5056910;28;20056;-72
2023/04/10 09:40:47;;;;;;;0.68;0.68;;;14.50;99.90;;;;;;5058290;28;20052;-71
2023/04/10 09:43:31;;;;;;;3.25;1.42;;;14.80;99.90;;;;;;5076788;28;20028;-70
2023/04/10 09:45:57;;;;;;;2.70;1.50;;;14.90;99.90;;;;;;5068241;28;20032;-71
2023/04/10 09:48:25;;;;;;;1.95;1.05;;;14.90;99.90;;;;;;5070330;28;20032;-70
2023/04/10 09:50:51;;;;;;;3.85;2.53;;;14.80;99.90;;;;;;5084383;28;20043;-69
2023/04/10 09:53:19;;;;;;;1.48;1.10;;;15.00;99.90;;;;;;5088430;28;20016;-69
2023/04/10 09:55:49;;;;;;;2.30;1.50;;;15.00;99.90;;;;;;5083526;28;20542;-69
2023/04/10 09:58:15;;;;;;;5.35;2.65;;;15.00;99.90;;;;;;5067838;28;20491;-69
2023/04/10 10:00:47;;;;;;;1.42;1.20;;;15.00;99.60;;;;;;5062049;28;20049;-69
2023/04/10 10:03:15;;;;;;;2.53;1.02;;;15.00;99.80;;;;;;5062474;28;20017;-69
2023/04/10 10:05:44;;;;;;;3.35;1.67;;;15.00;99.90;;;;;;5069874;28;20415;-69
2023/04/10 10:08:11;;;;;;;1.63;1.23;;;14.90;99.90;;;;;;5066317;28;20024;-69
2023/04/10 10:10:50;;;;;;;0.57;0.57;;;14.90;99.90;;;;;;5066327;28;20058;-69
2023/04/10 10:13:34;;;;;;;2.20;1.70;;;15.20;99.90;;;;;;5065695;28;20025;-70
2023/04/10 10:16:25;;;;;;;1.80;1.65;;;15.20;99.50;;;;;;5063184;28;20020;-68
2023/04/10 10:19:19;;;;;;;1.75;1.27;;;15.20;99.90;;;;;;5072671;28;20124;-69
2023/04/10 10:21:46;;;;;;;1.42;1.33;;;15.60;99.90;;;;;;5076187;28;20029;-71
2023/04/10 10:24:14;;;;;;;3.28;1.63;;;15.60;99.40;;;;;;5072483;28;20036;-69
2023/04/10 10:26:42;;;;;;;2.90;1.65;;;15.50;99.90;;;;;;5073684;28;20028;-69
2023/04/10 10:29:10;;;;;;;2.13;1.52;;;15.40;99.90;;;;;;5064217;28;20480;-68
2023/04/10 10:31:36;;;;;;;4.35;2.45;;;15.40;99.60;;;;;;5081072;28;20035;-69
2023/04/10 10:34:05;;;;;;;5.93;3.40;;;15.40;99.50;;;;;;5078909;28;20039;-69
2023/04/10 10:36:32;;;;;;;0.75;0.68;;;15.50;99.90;;;;;;5078395;28;20447;-69
2023/04/10 10:39:07;;;;;;;2.00;1.70;;;15.60;99.90;;;;;;5064387;28;20039;-69
2023/04/10 10:42:05;;;;;;;8.68;2.60;;;15.60;99.90;;;;;;5072657;28;20064;-69
2023/04/10 10:45:08;;;;;;;4.95;2.05;;;15.70;99.90;;;;;;5062587;28;20494;-69
2023/04/10 10:47:42;;;;;;;5.32;2.85;;;16.00;99.90;;;;;;5076295;28;20405;-69
2023/04/10 10:50:08;;;;;;;2.95;2.33;;;16.00;99.60;;;;;;5085217;28;20024;-69
2023/04/10 10:52:43;;;;;;;1.30;1.13;;;15.90;99.40;;;;;;5089860;28;20387;-69
2023/04/10 10:55:24;;;;;;;3.42;1.75;;;15.70;99.60;;;;;;5092056;28;20084;-69
2023/04/10 10:57:51;;;;;;;1.48;1.33;;;15.80;99.90;;;;;;5091931;28;20166;-69
2023/04/10 11:00:16;;;;;;;1.08;0.75;;;16.00;99.90;;;;;;5091635;28;20062;-68
2023/04/10 11:02:42;;;;;;;1.25;1.15;;;16.00;99.80;;;;;;5089116;28;20480;-69
2023/04/10 11:05:08;;;;;;;4.40;1.27;;;16.20;99.90;;;;;;5084106;28;20021;-69
2023/04/10 11:07:57;;;;;;;4.53;2.22;;;16.30;99.10;;;;;;5084416;28;20047;-70
2023/04/10 11:11:01;;;;;;;1.52;1.42;;;16.20;99.40;;;;;;5083245;28;20051;-69
2023/04/10 11:13:27;;;;;;;1.23;1.00;;;16.20;99.70;;;;;;5069373;28;20067;-69
2023/04/10 11:15:56;;;;;;;1.35;0.85;;;16.10;99.90;;;;;;5074649;28;20025;-69
2023/04/10 11:18:44;;;;;;;1.35;0.90;;;16.00;99.90;;;;;;5062144;28;20093;-69
2023/04/10 11:21:13;;;;;;;6.30;2.35;;;16.00;99.90;;;;;;5077264;28;20369;-69
2023/04/10 11:23:54;;;;;;;3.08;1.75;;;16.10;99.90;;;;;;5070734;28;20032;-69
2023/04/10 11:26:32;;;;;;;0.30;0.30;;;15.90;99.70;;;;;;5076306;28;20028;-70
2023/04/10 11:28:59;;;;;;;2.85;2.20;;;16.10;99.70;;;;;;5066949;28;20491;-70
2023/04/10 11:31:25;;;;;;;2.28;1.48;;;16.20;99.40;;;;;;5054665;28;20017;-70
2023/04/10 11:34:03;;;;;;;1.17;0.30;;;16.20;99.70;;;;;;5073675;28;20025;-71
2023/04/10 11:36:30;;;;;;;2.78;2.22;;;16.20;99.40;;;;;;5069441;28;20116;-71
2023/04/10 11:39:13;;;;;;;2.03;1.50;;;16.20;99.20;;;;;;5068244;28;20028;-71
2023/04/10 11:41:43;;;;;;;1.13;1.02;;;16.10;99.30;;;;;;5061841;28;20064;-71
2023/04/10 11:44:11;;;;;;;1.48;0.98;;;16.20;99.70;;;;;;5063985;28;21399;-73
2023/04/10 11:46:38;;;;;;;3.67;2.20;;;16.10;99.60;;;;;;5078946;28;20035;-71
2023/04/10 11:49:06;;;;;;;2.05;1.48;;;16.00;99.30;;;;;;5062663;28;20385;-72
2023/04/10 11:51:32;;;;;;;1.17;0.47;;;16.00;99.50;;;;;;5044565;28;20071;-71
2023/04/10 11:54:06;;;;;;;3.95;2.30;;;16.10;99.50;;;;;;5066916;28;20032;-71
2023/04/10 11:56:32;;;;;;;2.25;1.88;;;16.00;99.50;;;;;;5067232;28;20103;-70
2023/04/10 11:58:58;;;;;;;1.08;0.98;;;16.00;99.20;;;;;;5065903;28;20553;-71
2023/04/10 12:01:24;;;;;;;2.05;1.58;;;16.00;99.50;;;;;;5064418;28;20073;-71
2023/04/10 12:03:50;;;;;;;1.25;1.15;;;16.10;99.40;;;;;;5065802;28;20032;-71
2023/04/10 12:06:18;;;;;;;1.45;0.88;;;16.10;99.40;;;;;;5071167;28;20388;-72
2023/04/10 12:08:48;;;;;;;1.40;1.00;;;16.00;99.60;;;;;;5068766;28;20032;-72
2023/04/10 12:11:17;;;;;;;2.35;0.80;;;16.00;99.50;;;;;;5068899;28;20102;-71
2023/04/10 12:13:42;;;;;;;1.45;0.98;;;16.00;99.90;;;;;;5066536;28;20028;-71
2023/04/10 12:16:09;;;;;;;0.50;0.50;;;15.90;99.90;;;;;;5068708;28;20480;-72
2023/04/10 12:18:35;;;;;;;6.45;1.35;;;15.90;99.90;;;;;;5071590;28;20035;-72
2023/04/10 12:21:02;;;;;;;1.45;1.15;;;15.80;99.90;;;;;;5071377;28;20472;-72
2023/04/10 12:23:29;;;;;;;0.80;0.68;;;15.80;99.90;;;;;;5073990;28;20033;-71
2023/04/10 12:26:17;;;;;;;1.48;1.13;;;15.60;99.90;;;;;;5062970;28;20039;-72
2023/04/10 12:28:54;;;;;;;0.45;0.45;;;15.40;99.90;;;;;;5070210;28;20072;-70
2023/04/10 12:31:33;;;;;;;6.72;3.28;;;15.40;99.90;;;;;;5068582;28;20406;-71
2023/04/10 12:34:00;;;;;;;0.65;0.65;;;15.20;99.90;;;;;;5066243;28;20123;-71
2023/04/10 12:36:28;;;;;;;3.13;1.70;;;15.10;99.90;;;;;;5068158;28;20032;-71
2023/04/10 12:38:56;;;;;;;6.45;2.13;;;15.20;99.90;;;;;;5067394;28;20028;-72
2023/04/10 12:41:27;;;;;;;0.57;0.57;;;15.20;99.90;;;;;;5066576;28;20048;-71
2023/04/10 12:44:09;;;;;;;1.38;0.50;;;15.20;99.90;;;;;;5067289;28;20705;-71
2023/04/10 12:46:35;;;;;;;3.78;2.17;;;15.20;99.90;;;;;;5068506;28;20110;-70
2023/04/10 12:49:15;;;;;;;0.73;0.73;;;15.00;99.90;;;;;;5077455;28;20052;-73
2023/04/10 12:51:42;;;;;;;0.85;0.85;;;15.00;99.90;;;;;;5071022;28;20039;-70
2023/04/10 12:54:08;;;;;;;1.30;0.98;;;15.00;99.90;;;;;;5067982;28;20024;-72
2023/04/10 12:56:41;;;;;;;1.77;1.30;;;15.00;99.90;;;;;;5070484;28;20423;-70
2023/04/10 12:59:07;;;;;;;1.20;1.10;;;15.00;99.90;;;;;;5067304;28;20108;-71
2023/04/10 13:01:33;;;;;;;3.03;1.45;;;14.90;99.90;;;;;;5065340;28;20139;-72
2023/04/10 13:03:59;;;;;;;2.30;1.52;;;15.10;99.90;;;;;;5068455;28;20048;-70
2023/04/10 13:06:25;;;;;;;3.05;1.48;;;15.00;99.90;;;;;;5068172;28;20024;-70
2023/04/10 13:08:51;;;;;;;2.35;1.45;;;15.10;99.90;;;;;;5070247;28;20046;-69